aviador You're here:

YWHA Decoded Metar

WHYALLA AIRPORT in _UNIDENTIFIED
Report Time2018-07-23 15:00:00
UTC Time2018-07-23 15:46:42
Flight Rules vfr VFR
Wind330° at 08 kt
W.Decomp.*RWY 35: 7.1 kt HW 3.6 kt LCW
RWY 05: 0.4 kt HW 8 kt LCW
W.Rank330° ranks 5
Current wind is above 330° avg. (7.8)
Visibility9999 m
Phenomena:N/A
Clouds:N/A
Expected CloudBase > 800 ft AGL from Temp-Dew spread
CeilingNone
Temp11°C (ISA -4)
Dew Point09°C (88% RH)
AAT7.9°C
QNH1014 hPa
Density Alt-305 ft
Elevation43 ft
Report Wrong Elevation
Raw Report
YWHA 231500Z AUTO 33008KT 9999 // NCD 11/09 Q1014=

Extra information for YWHA:More info

Metar Taf Metar & Taf Last 4 Metars F.Rules Stats Wind Profile Meteogram Temp Stats Airport Information Weather charts Add Link Nearby VenuesMetar ALERT Operation Metar Decoded Social comments